TimePST,TemperatureF,Dew PointF,Humidity,Sea Level PressureIn,VisibilityMPH,Wind Direction,Wind SpeedMPH,Gust SpeedMPH,PrecipitationIn,Events,Conditions,WindDirDegrees,DateUTC
12:53 AM,62.1,42.1,48,30.03,10.0,Calm,Calm,-,N/A,,Clear,0,2012-11-05 08:53:00
1:53 AM,62.1,39.0,43,30.03,10.0,Calm,Calm,-,N/A,,Clear,0,2012-11-05 09:53:00
2:53 AM,60.1,42.1,51,30.01,10.0,Calm,Calm,-,N/A,,Clear,0,2012-11-05 10:53:00
4:53 AM,59.0,41.0,51,30.02,10.0,Calm,Calm,-,N/A,,Clear,0,2012-11-05 12:53:00
5:53 AM,57.9,42.1,56,30.03,10.0,Calm,Calm,-,N/A,,Clear,0,2012-11-05 13:53:00
6:53 AM,62.1,42.1,48,30.04,10.0,Calm,Calm,-,N/A,,Clear,0,2012-11-05 14:53:00
7:53 AM,72.0,43.0,35,30.05,10.0,Calm,Calm,-,N/A,,Clear,0,2012-11-05 15:53:00
8:53 AM,80.1,41.0,25,30.05,10.0,Calm,Calm,-,N/A,,Clear,0,2012-11-05 16:53:00
9:53 AM,87.1,39.9,19,30.04,10.0,NNW,3.5,-,N/A,,Clear,340,2012-11-05 17:53:00
10:53 AM,93.0,33.1,12,30.03,10.0,Calm,Calm,-,N/A,,Clear,0,2012-11-05 18:53:00
11:53 AM,95.0,35.1,12,30.00,10.0,Calm,Calm,-,N/A,,Clear,0,2012-11-05 19:53:00
12:53 PM,95.0,30.9,10,29.98,10.0,Variable,5.8,-,N/A,,Clear,0,2012-11-05 20:53:00
1:53 PM,93.9,37.9,14,29.96,10.0,SSW,6.9,-,N/A,,Clear,210,2012-11-05 21:53:00
2:53 PM,93.9,28.9,10,29.96,10.0,SSW,6.9,-,N/A,,Clear,210,2012-11-05 22:53:00
3:53 PM,90.0,36.0,15,29.96,10.0,South,4.6,-,N/A,,Clear,180,2012-11-05 23:53:00
4:53 PM,82.9,43.0,24,29.97,10.0,South,4.6,-,N/A,,Clear,190,2012-11-06 00:53:00
5:53 PM,79.0,46.9,32,29.99,10.0,Calm,Calm,-,N/A,,Clear,0,2012-11-06 01:53:00
6:53 PM,75.0,46.9,37,30.00,10.0,Calm,Calm,-,N/A,,Clear,0,2012-11-06 02:53:00
7:53 PM,71.1,46.0,41,30.01,10.0,Calm,Calm,-,N/A,,Clear,0,2012-11-06 03:53:00
8:53 PM,71.1,41.0,34,30.01,10.0,East,3.5,-,N/A,,Clear,90,2012-11-06 04:53:00
9:53 PM,70.0,42.1,36,30.02,10.0,ESE,3.5,-,N/A,,Clear,110,2012-11-06 05:53:00
10:53 PM,66.9,42.1,40,30.02,10.0,Calm,Calm,-,N/A,,Clear,0,2012-11-06 06:53:00
11:53 PM,64.0,46.0,52,30.03,10.0,Calm,Calm,-,N/A,,Clear,0,2012-11-06 07:53:00